Weather observations for the past three days for
Elk City Regional Business Airport
Metric (Imperial)
Date Time (cdt) Wind (kph) Vis. (km) Weather Sky Cond. Temperature (ºC) Relative Humidity Wind Chill (°C) Heat Index (°C) Pressure Precipitation (cm)
Air Dwpt 6 hour altimeter (cm) sea level (mb) 1 hr 3 hr 6 hr
Max. Min.
09 08:55 Calm 14.48 A Few Clouds FEW170 18 12.6 71% 75.92 0.0
09 08:35 NW 6 14.48 Partly Cloudy SCT170 17.8 12.4 71% 75.9 0.0
09 08:15 NW 6 16.09 Mostly Cloudy BKN170 17.6 11.6 68% 75.87 0.0
09 07:35 NW 11 16.09 Fair CLR 12.5 9.1 80% 75.87 0.0
09 07:15 NW 13 16.09 Fair CLR 11.6 8.8 83% 75.84 0.0
09 06:55 NW 7 16.09 Partly Cloudy SCT160 10.7 9 16 10.6 89% 75.84 0.0
09 06:35 NW 9 16.09 Partly Cloudy SCT160 10.7 9.4 92% 75.82 0.0
09 06:15 NW 7 16.09 Mostly Cloudy SCT160 BKN180 11.8 10 89% 75.79 0.0
09 05:55 N 7 16.09 Mostly Cloudy SCT160 BKN180 12.5 10.4 87% 75.82 0.0
09 05:35 N 7 16.09 A Few Clouds FEW190 12.5 10.2 86% 75.82 0.0
09 05:15 N 11 16.09 Fair CLR 12.7 9.7 82% 75.84 0.0
09 04:55 NW 11 16.09 Fair CLR 11.4 9.4 88% 75.84 0.0
09 04:35 W 7 16.09 Fair CLR 11.6 9.3 86% 75.87 0.0
09 04:15 NW 6 16.09 Fair CLR 12.6 9.1 79% 75.84 0.0
09 03:55 NE 6 16.09 Fair CLR 13.5 8.4 71% 75.84 0.0
09 03:35 Calm 16.09 Fair CLR 14.4 7.4 63% 75.87 0.0
09 03:15 NE 9 16.09 Fair CLR 14.5 7.3 62% 75.87 0.0
09 02:55 NE 11 16.09 Fair CLR 14.5 7.1 61% 75.9 0.0
09 02:35 NE 11 16.09 Fair CLR 15.1 6.7 57% 75.9 0.0
09 02:15 NE 7 16.09 Fair CLR 15.4 6.4 55% 75.9 0.0
09 01:55 Calm 16.09 Fair CLR 13.6 6.5 62% 75.9 0.0
09 01:35 NE 9 16.09 Fair CLR 15.9 6.1 52% 75.9 0.0
09 01:15 NE 11 16.09 Fair CLR 15.6 6.2 54% 75.9 0.0
09 00:55 NE 13 16.09 Fair CLR 15.2 6.3 28.1 15.2 56% 75.9 0.0
09 00:35 NE 15 16.09 Fair CLR 15.8 6.1 53% 75.9 0.0
09 00:15 E 15 16.09 Fair CLR 16 5.7 51% 75.92 0.0
08 23:55 NE 20 16.09 Fair CLR 18.7 4.9 40% 75.9 0.0
08 23:35 NE 17 16.09 Fair CLR 19.3 4.6 38% 75.87 0.0
08 23:15 NE 19 16.09 Fair CLR 20 4.4 36% 75.87 0.0
08 22:55 NE 19 16.09 Fair CLR 20.3 4.6 36% 75.84 0.0
08 22:35 N 17 16.09 Fair CLR 21.6 4.2 32% 75.82 0.0
08 22:15 N 24 16.09 Fair CLR 22.4 4.1 30% 75.77 0.0
08 21:55 NE 17 16.09 Fair CLR 21.7 4.8 33% 75.72 0.0
08 21:35 N 15 16.09 Fair CLR 22.2 5 33% 75.69 0.0
08 21:15 N 20 16.09 Fair CLR 21.8 5 34% 75.69 0.0
08 20:55 N 24 12.87 Fair CLR 23.5 4.8 30% 75.67 0.0
08 20:35 N 20 12.87 Fair CLR 23.9 5 29% 25 75.64 0.0
08 20:15 N 20 12.87 Fair CLR 24.8 5.2 28% 25 75.64 0.0
08 19:55 N 26 14.48 Fair CLR 26.5 4.8 25% 26 75.62 0.0
08 19:35 N 28 14.48 Fair CLR 27 4.1 23% 26 75.62 0.0
08 19:15 N 30 14.48 Fair CLR 27.7 3.1 21% 27 75.62 0.0
08 18:55 N 30 14.48 Fair CLR 28.3 2 31.3 26.5 18% 27 75.59 0.0
08 18:35 N 37 14.48 Fair and Breezy CLR 28.9 2.1 18% 27 75.59 0.0
08 18:15 N 33 G 46 16.09 Fair and Breezy CLR 29.7 1.2 16% 28 75.57 0.0
08 17:55 N 28 14.48 Fair CLR 30.4 2.5 17% 28 75.54 0.0
08 17:35 N 28 12.87 A Few Clouds FEW100 30.7 3.7 18% 29 75.54 0.0
08 17:15 N 26 G 37 14.48 Partly Cloudy SCT100 31.2 5.3 19% 29 75.51 0.0
08 16:55 NW 20 14.48 Mostly Cloudy SCT100 BKN130 31.3 7 22% 29 75.51 0.0
08 16:35 W 13 14.48 Mostly Cloudy FEW095 BKN140 29.5 6.9 24% 28 75.51 0.0
08 16:15 W 17 14.48 A Few Clouds FEW085 30 8.4 26% 28 75.54 0.0
08 15:55 W 13 14.48 Mostly Cloudy SCT090 BKN100 29.5 9 28% 28 75.57 0.0
08 15:35 SW 13 G 30 14.48 A Few Clouds FEW110 29.3 8.9 28% 28 75.59 0.0
08 15:15 W 9 14.48 A Few Clouds FEW075 30 10.7 30% 29 75.62 0.0
08 14:55 W 15 14.48 A Few Clouds FEW070 28.5 11 34% 28 75.62 0.0
08 14:35 W 24 G 31 14.48 Partly Cloudy SCT070 30 12.7 35% 29 75.64 0.0
08 14:15 SW 13 G 30 14.48 Partly Cloudy SCT065 27.3 11.6 38% 27 75.64 0.0
08 13:55 SW 15 16.09 Partly Cloudy SCT055 27.3 13.2 42% 27 75.67 0.0
08 13:35 SW 28 14.48 Partly Cloudy SCT055 27.4 13.9 44% 27 75.69 0.0
08 13:15 W 19 16.09 Fair CLR 26.6 14.1 46% 27 75.72 0.0
08 12:55 SW 22 G 37 16.09 Fair CLR 26.7 14.8 26.8 12.2 48% 27 75.72 0.0
08 12:35 SW 26 G 39 14.48 Fair CLR 26.1 15.3 51% 27 75.74 0.0
08 12:15 SW 20 16.09 Fair CLR 25.3 15.5 55% 26 75.77 0.0
08 11:55 SW 22 16.09 Fair CLR 24.5 15.2 56% 26 75.79 0.0
08 11:35 SW 28 G 33 16.09 Fair CLR 23.8 14.7 57% 75.79 0.0
08 11:15 SW 20 G 35 16.09 Fair CLR 22.7 14.2 59% 75.82 0.0
08 10:55 SW 22 16.09 Fair CLR 21.5 14.3 64% 75.84 0.0
08 10:35 SW 26 16.09 Fair CLR 21.2 14.5 66% 75.84 0.0
08 10:15 SW 26 16.09 Fair CLR 20.3 14.3 69% 75.87 0.0
08 09:55 SW 24 16.09 Fair CLR 19.3 12.8 66% 75.9 0.0
08 09:35 S 28 16.09 Fair CLR 19.3 11.9 62% 75.92 0.0
08 09:15 S 31 16.09 Fair CLR 18.4 11.2 63% 75.92 0.0
08 08:55 S 30 16.09 Fair CLR 17 11.1 68% 75.92 0.0
08 08:35 S 28 16.09 Fair CLR 16.2 11.3 73% 75.92 0.0
08 08:15 S 26 16.09 Fair CLR 15.1 11.4 79% 75.92 0.0
08 07:55 S 28 16.09 Fair CLR 14.2 11.3 83% 75.92 0.0
08 07:35 S 20 14.48 Fair CLR 13.7 11.3 86% 75.92 0.0
08 07:15 S 19 14.48 Fair CLR 13 11 88% 75.9 0.0
08 06:55 S 15 16.09 Fair CLR 12 10.8 15.7 12 92% 75.9 0.0
08 06:35 S 19 16.09 Fair CLR 12.4 10.8 90% 75.9 0.0
08 06:15 S 19 16.09 Fair CLR 12.7 10.8 88% 75.9 0.0
08 05:55 S 26 16.09 Fair CLR 13.3 10.6 84% 75.9 0.0
08 05:35 S 24 16.09 Fair CLR 13.3 10.6 84% 75.87 0.0
08 05:15 S 26 16.09 Fair CLR 13.6 10.5 82% 75.87 0.0
08 04:55 S 28 16.09 Fair CLR 14 10.2 78% 75.87 0.0
08 04:35 SW 28 16.09 Fair CLR 14.3 9.9 75% 75.87 0.0
08 04:15 S 30 16.09 Fair CLR 14.5 10.1 75% 75.87 0.0
08 03:55 S 28 16.09 Fair CLR 14.5 10.2 76% 75.9 0.0
08 03:35 S 28 16.09 Fair CLR 14.5 9.9 74% 75.9 0.0
08 03:15 S 24 16.09 Fair CLR 14.7 9.6 72% 75.92 0.0
08 02:55 S 24 16.09 Fair CLR 15.1 9.4 69% 75.95 0.0
08 02:35 S 26 16.09 Fair CLR 15.3 9.3 68% 75.95 0.0
08 02:15 S 28 16.09 Fair CLR 15.7 8.8 64% 75.95 0.0
08 01:55 S 24 16.09 Fair CLR 15.6 7.8 60% 75.97 0.0
08 01:35 S 28 16.09 Fair CLR 15.7 7.2 57% 75.97 0.0
08 01:15 S 24 16.09 Fair CLR 15.1 6.4 56% 76 0.0
08 00:55 S 24 16.09 Fair CLR 14.9 5.8 24.7 13.8 55% 76 0.0
08 00:35 S 22 16.09 Fair CLR 14.8 4.9 52% 76 0.0
08 00:15 S 24 16.09 Fair CLR 15.3 4.3 48% 76 0.0
07 23:55 S 22 16.09 Fair CLR 15.5 3.1 44% 76.02 0.0
07 23:35 S 19 16.09 Fair CLR 15.7 2.7 42% 76.02 0.0
07 23:15 S 17 16.09 Fair CLR 13.9 2.4 46% 76.02 0.0
07 22:55 S 15 16.09 Fair CLR 15.6 2.2 41% 76.02 0.0
07 22:35 S 15 16.09 Fair CLR 16.2 1.8 38% 76.02 0.0
07 22:15 S 15 16.09 Fair CLR 17 1.8 36% 76.02 0.0
07 21:55 S 17 16.09 Fair CLR 17.4 2.2 36% 75.97 0.0
07 21:35 S 13 16.09 Fair CLR 17.4 2 36% 75.97 0.0
07 21:15 S 13 16.09 Fair CLR 18.3 1.3 32% 75.97 0.0
07 20:55 S 13 16.09 Fair CLR 19.4 1.1 30% 75.95 0.0
07 20:35 S 13 16.09 Fair CLR 20.1 1 28% 75.95 0.0
07 20:15 S 15 16.09 Fair CLR 21.4 1 26% 75.95 0.0
07 19:55 S 19 16.09 Fair CLR 23.1 0.7 23% 75.92 0.0
07 19:35 S 26 16.09 Fair CLR 24 0.3 21% 25 75.92 0.0
07 19:15 S 17 16.09 Fair CLR 24.5 0.5 21% 25 75.92 0.0
07 18:55 S 20 16.09 Fair CLR 24.6 1.1 25.5 20.2 21% 25 75.92 0.0
07 18:35 SW 20 16.09 Fair CLR 24.9 1.3 21% 25 75.92 0.0
07 18:15 S 17 16.09 Fair CLR 25 1.8 22% 25 75.92 0.0
07 17:55 S 19 16.09 Fair CLR 25.5 2 22% 25 75.95 0.0
07 17:35 SW 11 16.09 Fair CLR 25.2 1.3 21% 25 75.95 0.0
07 17:15 S 22 16.09 Fair CLR 25.3 1.3 21% 25 75.97 0.0
07 16:55 Vrbl 7 16.09 Fair CLR 24.5 1 21% 25 75.95 0.0
07 16:35 SW 15 16.09 Fair CLR 24.8 1.9 22% 25 76 0.0
07 16:15 SW 15 G 30 16.09 Fair CLR 24.5 1.7 23% 25 76.02 0.0
07 15:15 W 19 G 30 16.09 Fair CLR 23.5 1.4 23% 76.12 0.0
07 14:55 W 9 G 28 16.09 Fair CLR 23.5 1 23% 76.15 0.0
07 14:35 SW 17 G 28 16.09 Fair CLR 22.8 1.5 25% 76.15 0.0
07 14:15 SW 15 G 28 16.09 Fair CLR 22.4 0.6 24% 76.2 0.0
07 13:55 SW 19 G 28 16.09 A Few Clouds FEW340 22.2 1.6 26% 76.23 0.0
07 13:35 SW 19 G 31 16.09 A Few Clouds FEW340 21.6 2.5 28% 76.25 0.0
07 13:15 W 19 G 31 16.09 Fair CLR 20.8 1.4 28% 76.28 0.0
07 12:55 W 20 16.09 Fair CLR 19.4 3.6 19.4 5.7 35% 76.3 0.0
07 12:35 SW 22 G 33 16.09 Fair CLR 19.1 4.8 39% 76.33 0.0
07 12:15 SW 20 G 26 16.09 Fair CLR 18.2 4.8 41% 76.38 0.0
07 11:55 W 20 G 33 16.09 Fair CLR 17.1 5.2 46% 76.4 0.0
07 11:35 SW 19 G 33 16.09 Fair CLR 17 5.2 46% 76.43 0.0
07 11:15 SW 24 16.09 Fair CLR 16.8 4.9 46% 76.43 0.0
07 10:55 W 19 16.09 Fair CLR 16.2 5.2 48% 76.45 0.0
07 10:35 SW 19 16.09 Fair CLR 16 6.4 53% 76.45 0.0
07 10:15 SW 15 16.09 Fair CLR 15.1 6.9 58% 76.48 0.0
07 09:55 W 13 16.09 Fair CLR 13.8 7.6 66% 76.48 0.0
07 09:35 Vrbl 9 16.09 Fair CLR 12.9 7.4 69% 76.5 0.0
07 09:15 W 11 16.09 Fair CLR 11.9 7.3 74% 76.53 0.0
07 08:55 W 15 16.09 Fair CLR 10.9 7.2 78% 76.53 0.0
07 08:35 W 13 16.09 Fair CLR 10.2 7.2 82% 76.53 0.0
07 08:15 NW 15 16.09 Fair CLR 9.4 7.8 90% 7 76.53 0.0
07 07:55 NW 13 16.09 Fair CLR 8.2 8.2 100% 6 76.53 0.0
07 07:35 NW 11 16.09 Fair CLR 6.9 6.9 100% 5 76.53 0.0
07 07:15 NW 9 12.87 Fair CLR 5.9 5.9 100% 4 76.53 0.0
07 06:55 NW 9 14.48 Fair CLR 5.5 5.5 10.5 5.2 100% 4 76.5 0.0
07 06:35 NW 11 14.48 Fair CLR 5.5 5.5 100% 3 76.5 0.0
07 06:15 NW 13 16.09 Fair CLR 6.1 6.1 100% 4 76.5 0.0
07 05:55 NW 13 16.09 Fair CLR 6.5 6.5 100% 4 76.5 0.0
07 05:35 NW 15 16.09 Fair CLR 6.8 6.8 100% 4 76.5 0.0
07 05:15 NW 19 16.09 Fair CLR 7.2 7.2 100% 4 76.5 0.0
07 04:55 NW 19 16.09 Fair CLR 7.6 7.6 100% 5 76.48 0.0
07 04:35 NW 20 16.09 Partly Cloudy FEW090 SCT120 7.8 7.8 100% 5 76.48 0.0
07 04:15 NW 19 16.09 Mostly Cloudy SCT090 BKN120 8.2 8.1 99% 6 76.48 0.0
07 03:55 NW 15 16.09 Overcast FEW090 OVC130 8.6 7.8 95% 6 76.5 0.0
07 03:35 NW 19 16.09 Overcast BKN090 OVC130 9 7.3 89% 7 76.5 0.0
07 03:15 NW 19 16.09 Overcast OVC090 10 4.7 70% 8 76.5 0.0
07 02:55 NW 17 16.09 Overcast OVC090 10.2 3.4 63% 76.5 0.0
07 02:35 NW 13 16.09 Overcast OVC090 10.3 3.4 63% 76.48 0.0
07 02:15 NW 13 16.09 Overcast OVC085 10.2 3.2 62% 76.48 0.0
07 01:55 NW 13 16.09 Overcast OVC085 10.2 3.3 63% 76.5 0.0
07 01:35 NW 9 16.09 Overcast OVC080 9.9 3.8 66% 9 76.5 0.0
07 01:15 Calm 16.09 Overcast OVC085 9.6 3.8 67% 76.53 0.0
07 00:55 NW 9 16.09 Overcast OVC090 9.2 3.6 16.6 7.8 68% 8 76.56 0.0
07 00:35 NW 11 16.09 Mostly Cloudy BKN090 9.1 3.4 68% 8 76.56 0.0
07 00:15 N 11 16.09 Partly Cloudy FEW060 SCT095 8 3.4 73% 6 76.53 0.0
06 23:55 N 15 16.09 A Few Clouds FEW060 8.2 3.2 71% 6 76.5 0.0
06 23:35 N 13 16.09 Fair CLR 8.3 2.9 69% 6 76.5 0.0
06 23:15 N 15 16.09 Fair CLR 8.7 2.6 66% 7 76.53 0.0
06 22:55 N 15 16.09 Fair CLR 9.3 2.2 61% 7 76.48 0.0
06 22:35 N 11 16.09 Fair CLR 9.3 2.3 62% 8 76.48 0.0
06 22:15 N 15 16.09 Fair CLR 10.9 1.8 54% 76.43 0.0
06 21:55 N 15 16.09 Fair CLR 11 1.9 54% 76.38 0.0
06 21:35 N 17 16.09 Fair CLR 11.1 1.9 53% 76.35 0.0
06 21:15 NE 15 16.09 Fair CLR 11.7 1.7 51% 76.33 0.0
06 20:55 NE 17 16.09 Fair CLR 12.4 1.7 48% 76.25 0.0
06 20:35 NE 22 16.09 Fair CLR 13.3 1.6 45% 76.25 0.0
06 20:15 NE 19 16.09 Fair CLR 14.2 1.7 43% 76.25 0.0
06 19:55 NE 17 16.09 Fair CLR 15.1 1.9 41% 76.23 0.0
06 19:35 NE 24 16.09 Fair CLR 15.6 1.7 39% 76.23 0.0
06 19:15 NE 17 16.09 Fair CLR 16.3 1.6 37% 76.2 0.0
06 18:55 NE 15 16.09 Fair CLR 16.5 2 17.3 13.6 38% 76.2 0.0
06 18:35 NE 19 16.09 A Few Clouds FEW060 16.9 1.9 37% 76.2 0.0
06 18:15 NE 19 16.09 A Few Clouds FEW060 17.1 2.3 37% 76.2 0.0
06 17:55 NE 19 16.09 Fair CLR 17 2.8 39% 76.17 0.0
06 17:35 N 11 16.09 A Few Clouds FEW055 16.7 3 40% 76.2 0.0
06 17:15 N 13 16.09 Mostly Cloudy BKN050 16.7 3 40% 76.2 0.0
06 16:55 N 15 16.09 A Few Clouds FEW048 16.6 3.2 41% 76.2 0.0
06 16:35 N 17 16.09 Partly Cloudy SCT048 15.9 3 42% 76.2 0.0
06 16:15 E 13 16.09 A Few Clouds FEW048 16.8 3.6 42% 76.17 0.0
06 15:55 NE 15 16.09 A Few Clouds FEW046 16.2 3.4 43% 76.2 0.0
06 15:35 NE 20 G 30 16.09 Mostly Cloudy BKN047 16.6 3.7 42% 76.23 0.0
06 15:15 NE 20 16.09 Mostly Cloudy BKN046 15.2 3.2 45% 76.25 0.0
06 14:55 NE 13 G 28 16.09 Mostly Cloudy BKN045 BKN100 15.5 3.2 44% 76.25 0.0
06 14:35 NE 22 G 30 16.09 Mostly Cloudy BKN045 15.1 3.3 45% 76.25 0.0
06 14:15 NE 20 G 30 16.09 Mostly Cloudy BKN044 15.1 3.1 45% 76.28 0.0
06 13:55 NE 13 16.09 Mostly Cloudy BKN043 BKN055 15.2 3.7 46% 76.28 0.0
06 13:35 NE 13 G 30 16.09 Overcast OVC043 14.4 3.6 49% 76.3 0.0
06 13:15 NE 19 16.09 Overcast OVC041 14.2 3.7 50% 76.33 0.0
06 12:55 NE 20 G 26 16.09 Overcast OVC040 13.7 3.7 14 7.9 51% 76.33 0.0
06 12:35 E 15 16.09 Overcast OVC040 13.5 3.8 52% 76.33 0.0
06 12:15 NE 17 16.09 Overcast OVC039 13.1 3.9 54% 76.33 0.0
06 11:55 E 20 G 28 16.09 Mostly Cloudy BKN036 13.5 4.3 54% 76.33 0.0
06 11:35 E 24 G 39 16.09 Mostly Cloudy BKN036 13.1 4.5 56% 76.3 0.0
06 11:15 NE 19 G 37 16.09 Mostly Cloudy BKN034 13.2 4.7 57% 76.3 0.0
06 10:55 E 28 G 41 16.09 A Few Clouds FEW032 12.8 4.7 58% 76.28 0.0
06 10:35 E 30 16.09 A Few Clouds FEW030 12.2 4.6 60% 76.25 0.0
06 10:15 E 24 16.09 Partly Cloudy SCT028 11.9 4.7 62% 76.25 0.0
06 09:55 NE 24 G 39 16.09 Mostly Cloudy BKN026 BKN046 10.7 4.7 67% 76.25 0.0
06 09:35 NE 24 G 43 16.09 Mostly Cloudy BKN025 BKN046 11.3 4.9 65% 76.25 0.0
06 09:15 NE 33 16.09 Partly Cloudy and Breezy SCT021 10 4.8 70% 7 76.23 0.0
Date Time (cdt) Wind (kph) Vis. (km) Weather Sky Cond. Air Dwpt Max. Min. Relative Humidity Wind Chill (°C) Heat Index (°C) altimeter (cm) sea level (mb) 1 hr 3 hr 6 hr
6 hour
Temperature (ºC) Pressure Precipitation (cm)